sensor_id;sensor_type;location;lat;lon;timestamp;P1;durP1;ratioP1;P2;durP2;ratioP2
34317;SDS011;20582;52.196;20.952;2023-02-24T00:01:11;69.85;;;32.55;;
34317;SDS011;20582;52.196;20.952;2023-02-24T00:03:39;64.72;;;30.83;;
34317;SDS011;20582;52.196;20.952;2023-02-24T00:06:09;61.63;;;31.67;;
34317;SDS011;20582;52.196;20.952;2023-02-24T00:08:39;74.65;;;32.53;;
34317;SDS011;20582;52.196;20.952;2023-02-24T00:11:09;61.50;;;30.90;;
34317;SDS011;20582;52.196;20.952;2023-02-24T00:13:36;64.80;;;32.95;;
34317;SDS011;20582;52.196;20.952;2023-02-24T00:16:03;66.18;;;31.85;;
34317;SDS011;20582;52.196;20.952;2023-02-24T00:18:30;62.97;;;32.47;;
34317;SDS011;20582;52.196;20.952;2023-02-24T00:21:06;62.70;;;31.50;;
34317;SDS011;20582;52.196;20.952;2023-02-24T00:23:34;67.50;;;31.73;;
34317;SDS011;20582;52.196;20.952;2023-02-24T00:26:01;65.57;;;34.25;;
34317;SDS011;20582;52.196;20.952;2023-02-24T00:28:27;61.53;;;33.28;;
34317;SDS011;20582;52.196;20.952;2023-02-24T00:30:53;66.25;;;33.08;;
34317;SDS011;20582;52.196;20.952;2023-02-24T00:33:20;61.85;;;31.50;;
34317;SDS011;20582;52.196;20.952;2023-02-24T00:35:49;65.05;;;34.85;;
34317;SDS011;20582;52.196;20.952;2023-02-24T00:38:15;64.22;;;33.67;;
34317;SDS011;20582;52.196;20.952;2023-02-24T00:40:42;63.55;;;33.30;;
34317;SDS011;20582;52.196;20.952;2023-02-24T00:43:11;65.93;;;33.43;;
34317;SDS011;20582;52.196;20.952;2023-02-24T00:45:37;67.43;;;31.70;;
34317;SDS011;20582;52.196;20.952;2023-02-24T00:48:04;61.58;;;31.10;;
34317;SDS011;20582;52.196;20.952;2023-02-24T00:50:34;64.38;;;34.00;;
34317;SDS011;20582;52.196;20.952;2023-02-24T00:53:00;59.95;;;30.33;;
34317;SDS011;20582;52.196;20.952;2023-02-24T00:55:26;64.78;;;32.67;;
34317;SDS011;20582;52.196;20.952;2023-02-24T00:58:00;66.75;;;33.28;;
34317;SDS011;20582;52.196;20.952;2023-02-24T01:00:26;66.50;;;31.70;;
34317;SDS011;20582;52.196;20.952;2023-02-24T01:02:52;61.97;;;32.53;;
34317;SDS011;20582;52.196;20.952;2023-02-24T01:05:18;61.78;;;33.33;;
34317;SDS011;20582;52.196;20.952;2023-02-24T01:07:44;63.75;;;32.83;;
34317;SDS011;20582;52.196;20.952;2023-02-24T01:10:10;63.35;;;34.85;;
34317;SDS011;20582;52.196;20.952;2023-02-24T01:12:36;64.93;;;33.95;;
34317;SDS011;20582;52.196;20.952;2023-02-24T01:15:03;62.00;;;30.25;;
34317;SDS011;20582;52.196;20.952;2023-02-24T01:17:29;63.80;;;34.05;;
34317;SDS011;20582;52.196;20.952;2023-02-24T01:19:55;66.35;;;31.27;;
34317;SDS011;20582;52.196;20.952;2023-02-24T01:22:24;59.90;;;32.83;;
34317;SDS011;20582;52.196;20.952;2023-02-24T01:24:51;62.45;;;30.45;;
34317;SDS011;20582;52.196;20.952;2023-02-24T01:27:17;60.13;;;33.08;;
34317;SDS011;20582;52.196;20.952;2023-02-24T01:29:44;61.92;;;32.08;;
34317;SDS011;20582;52.196;20.952;2023-02-24T01:32:14;66.38;;;32.58;;
34317;SDS011;20582;52.196;20.952;2023-02-24T01:34:41;61.88;;;31.95;;
34317;SDS011;20582;52.196;20.952;2023-02-24T01:37:07;61.17;;;32.13;;
34317;SDS011;20582;52.196;20.952;2023-02-24T01:39:33;64.03;;;33.00;;
34317;SDS011;20582;52.196;20.952;2023-02-24T01:41:59;60.17;;;32.58;;
34317;SDS011;20582;52.196;20.952;2023-02-24T01:46:56;67.85;;;32.63;;
34317;SDS011;20582;52.196;20.952;2023-02-24T01:49:42;63.90;;;30.83;;
34317;SDS011;20582;52.196;20.952;2023-02-24T01:54:36;123.00;;;48.28;;
34317;SDS011;20582;52.196;20.952;2023-02-24T01:57:07;133.93;;;48.90;;
34317;SDS011;20582;52.196;20.952;2023-02-24T01:59:34;93.00;;;41.75;;
34317;SDS011;20582;52.196;20.952;2023-02-24T02:02:01;80.60;;;35.42;;
34317;SDS011;20582;52.196;20.952;2023-02-24T02:04:30;78.05;;;37.50;;
34317;SDS011;20582;52.196;20.952;2023-02-24T02:06:59;76.60;;;36.75;;
34317;SDS011;20582;52.196;20.952;2023-02-24T02:09:25;73.05;;;33.45;;
34317;SDS011;20582;52.196;20.952;2023-02-24T02:11:52;72.72;;;34.70;;
34317;SDS011;20582;52.196;20.952;2023-02-24T02:14:19;67.30;;;33.58;;
34317;SDS011;20582;52.196;20.952;2023-02-24T02:19:23;64.63;;;33.15;;
34317;SDS011;20582;52.196;20.952;2023-02-24T02:21:58;62.60;;;32.95;;
34317;SDS011;20582;52.196;20.952;2023-02-24T02:32:36;63.28;;;32.92;;
34317;SDS011;20582;52.196;20.952;2023-02-24T02:39:50;64.63;;;35.17;;
34317;SDS011;20582;52.196;20.952;2023-02-24T02:45:08;62.10;;;32.55;;
34317;SDS011;20582;52.196;20.952;2023-02-24T02:47:47;62.85;;;31.85;;
34317;SDS011;20582;52.196;20.952;2023-02-24T02:53:01;64.30;;;31.38;;
34317;SDS011;20582;52.196;20.952;2023-02-24T02:55:39;64.07;;;31.40;;
34317;SDS011;20582;52.196;20.952;2023-02-24T02:58:08;65.00;;;33.97;;
34317;SDS011;20582;52.196;20.952;2023-02-24T03:00:37;64.25;;;34.55;;
34317;SDS011;20582;52.196;20.952;2023-02-24T03:03:12;67.72;;;35.03;;
34317;SDS011;20582;52.196;20.952;2023-02-24T03:05:41;65.93;;;34.70;;
34317;SDS011;20582;52.196;20.952;2023-02-24T03:08:11;63.33;;;33.72;;
34317;SDS011;20582;52.196;20.952;2023-02-24T03:10:39;66.75;;;33.75;;
34317;SDS011;20582;52.196;20.952;2023-02-24T03:13:08;70.65;;;34.35;;
34317;SDS011;20582;52.196;20.952;2023-02-24T03:15:37;72.13;;;34.40;;
34317;SDS011;20582;52.196;20.952;2023-02-24T03:18:07;63.38;;;34.20;;
34317;SDS011;20582;52.196;20.952;2023-02-24T03:21:08;74.15;;;39.22;;
34317;SDS011;20582;52.196;20.952;2023-02-24T03:23:30;77.35;;;40.20;;
34317;SDS011;20582;52.196;20.952;2023-02-24T03:26:02;74.32;;;40.00;;
34317;SDS011;20582;52.196;20.952;2023-02-24T03:28:35;70.30;;;37.55;;
34317;SDS011;20582;52.196;20.952;2023-02-24T03:31:05;73.10;;;39.03;;
34317;SDS011;20582;52.196;20.952;2023-02-24T03:33:40;72.55;;;37.95;;
34317;SDS011;20582;52.196;20.952;2023-02-24T03:36:06;72.72;;;39.95;;
34317;SDS011;20582;52.196;20.952;2023-02-24T03:38:33;75.85;;;40.42;;
34317;SDS011;20582;52.196;20.952;2023-02-24T03:41:02;69.88;;;38.92;;
34317;SDS011;20582;52.196;20.952;2023-02-24T03:43:31;71.10;;;39.42;;
34317;SDS011;20582;52.196;20.952;2023-02-24T03:45:58;84.63;;;42.75;;
34317;SDS011;20582;52.196;20.952;2023-02-24T03:48:26;86.53;;;41.65;;
34317;SDS011;20582;52.196;20.952;2023-02-24T03:50:52;81.65;;;42.72;;
34317;SDS011;20582;52.196;20.952;2023-02-24T03:58:22;87.03;;;45.25;;
34317;SDS011;20582;52.196;20.952;2023-02-24T04:03:30;88.85;;;43.72;;
34317;SDS011;20582;52.196;20.952;2023-02-24T04:06:06;87.53;;;45.13;;
34317;SDS011;20582;52.196;20.952;2023-02-24T04:08:40;92.43;;;43.58;;
34317;SDS011;20582;52.196;20.952;2023-02-24T04:11:12;95.45;;;46.30;;
34317;SDS011;20582;52.196;20.952;2023-02-24T04:13:40;100.88;;;48.75;;
34317;SDS011;20582;52.196;20.952;2023-02-24T04:16:09;113.60;;;54.13;;
34317;SDS011;20582;52.196;20.952;2023-02-24T04:18:40;108.40;;;50.75;;
34317;SDS011;20582;52.196;20.952;2023-02-24T04:21:07;109.75;;;53.90;;
34317;SDS011;20582;52.196;20.952;2023-02-24T04:23:38;117.95;;;55.95;;
34317;SDS011;20582;52.196;20.952;2023-02-24T04:26:04;117.90;;;53.33;;
34317;SDS011;20582;52.196;20.952;2023-02-24T04:28:31;124.30;;;57.20;;
34317;SDS011;20582;52.196;20.952;2023-02-24T04:30:58;141.60;;;58.50;;
34317;SDS011;20582;52.196;20.952;2023-02-24T04:33:25;125.30;;;56.88;;
34317;SDS011;20582;52.196;20.952;2023-02-24T04:35:51;119.25;;;56.88;;
34317;SDS011;20582;52.196;20.952;2023-02-24T04:38:17;137.85;;;58.22;;
34317;SDS011;20582;52.196;20.952;2023-02-24T04:40:44;137.20;;;61.17;;
34317;SDS011;20582;52.196;20.952;2023-02-24T04:43:10;146.13;;;63.67;;
34317;SDS011;20582;52.196;20.952;2023-02-24T04:45:37;142.68;;;59.05;;
34317;SDS011;20582;52.196;20.952;2023-02-24T04:48:06;151.93;;;62.85;;
34317;SDS011;20582;52.196;20.952;2023-02-24T04:50:37;154.73;;;64.32;;
34317;SDS011;20582;52.196;20.952;2023-02-24T04:53:05;142.07;;;59.58;;
34317;SDS011;20582;52.196;20.952;2023-02-24T04:55:34;149.50;;;62.50;;
34317;SDS011;20582;52.196;20.952;2023-02-24T04:58:03;146.38;;;65.10;;
34317;SDS011;20582;52.196;20.952;2023-02-24T05:00:29;165.10;;;66.32;;
34317;SDS011;20582;52.196;20.952;2023-02-24T05:02:59;173.30;;;67.78;;
34317;SDS011;20582;52.196;20.952;2023-02-24T05:05:25;174.55;;;70.93;;
34317;SDS011;20582;52.196;20.952;2023-02-24T05:07:56;162.65;;;65.93;;
34317;SDS011;20582;52.196;20.952;2023-02-24T05:10:27;192.57;;;71.80;;
34317;SDS011;20582;52.196;20.952;2023-02-24T05:12:54;161.90;;;67.65;;
34317;SDS011;20582;52.196;20.952;2023-02-24T05:15:23;172.40;;;67.40;;
34317;SDS011;20582;52.196;20.952;2023-02-24T05:18:00;181.82;;;69.95;;
34317;SDS011;20582;52.196;20.952;2023-02-24T05:20:31;192.15;;;73.70;;
34317;SDS011;20582;52.196;20.952;2023-02-24T05:23:15;183.45;;;68.90;;
34317;SDS011;20582;52.196;20.952;2023-02-24T05:25:42;184.13;;;70.22;;
34317;SDS011;20582;52.196;20.952;2023-02-24T05:28:08;203.68;;;74.22;;
34317;SDS011;20582;52.196;20.952;2023-02-24T05:30:34;181.63;;;66.97;;
34317;SDS011;20582;52.196;20.952;2023-02-24T05:33:00;187.82;;;74.78;;
34317;SDS011;20582;52.196;20.952;2023-02-24T05:35:26;182.40;;;67.95;;
34317;SDS011;20582;52.196;20.952;2023-02-24T05:37:52;191.80;;;72.00;;
34317;SDS011;20582;52.196;20.952;2023-02-24T05:40:19;190.60;;;75.35;;
34317;SDS011;20582;52.196;20.952;2023-02-24T05:42:48;196.98;;;68.00;;
34317;SDS011;20582;52.196;20.952;2023-02-24T05:45:15;185.02;;;70.28;;
34317;SDS011;20582;52.196;20.952;2023-02-24T05:47:42;217.60;;;77.88;;
34317;SDS011;20582;52.196;20.952;2023-02-24T05:50:11;203.90;;;76.32;;
34317;SDS011;20582;52.196;20.952;2023-02-24T05:52:37;204.05;;;72.57;;
34317;SDS011;20582;52.196;20.952;2023-02-24T05:55:03;192.77;;;71.25;;
34317;SDS011;20582;52.196;20.952;2023-02-24T05:57:31;222.90;;;75.38;;
34317;SDS011;20582;52.196;20.952;2023-02-24T05:59:59;220.43;;;78.65;;
34317;SDS011;20582;52.196;20.952;2023-02-24T06:02:36;209.57;;;76.00;;
34317;SDS011;20582;52.196;20.952;2023-02-24T06:05:02;218.73;;;74.15;;
34317;SDS011;20582;52.196;20.952;2023-02-24T06:07:29;230.35;;;80.05;;
34317;SDS011;20582;52.196;20.952;2023-02-24T06:09:58;241.43;;;82.47;;
34317;SDS011;20582;52.196;20.952;2023-02-24T06:12:27;247.63;;;81.18;;
34317;SDS011;20582;52.196;20.952;2023-02-24T06:14:54;217.65;;;74.40;;
34317;SDS011;20582;52.196;20.952;2023-02-24T06:17:21;210.90;;;73.05;;
34317;SDS011;20582;52.196;20.952;2023-02-24T06:19:49;211.15;;;72.38;;
34317;SDS011;20582;52.196;20.952;2023-02-24T06:22:16;211.02;;;72.60;;
34317;SDS011;20582;52.196;20.952;2023-02-24T06:24:43;211.18;;;70.80;;
34317;SDS011;20582;52.196;20.952;2023-02-24T06:27:12;207.23;;;72.72;;
34317;SDS011;20582;52.196;20.952;2023-02-24T06:29:43;216.38;;;70.10;;
34317;SDS011;20582;52.196;20.952;2023-02-24T06:32:09;197.10;;;73.80;;
34317;SDS011;20582;52.196;20.952;2023-02-24T06:34:38;206.98;;;70.63;;
34317;SDS011;20582;52.196;20.952;2023-02-24T06:37:05;205.60;;;71.40;;
34317;SDS011;20582;52.196;20.952;2023-02-24T06:39:32;209.40;;;71.45;;
34317;SDS011;20582;52.196;20.952;2023-02-24T06:42:01;203.38;;;70.97;;
34317;SDS011;20582;52.196;20.952;2023-02-24T06:44:31;198.38;;;65.70;;
34317;SDS011;20582;52.196;20.952;2023-02-24T06:46:58;188.35;;;65.03;;
34317;SDS011;20582;52.196;20.952;2023-02-24T06:49:24;189.32;;;66.15;;
34317;SDS011;20582;52.196;20.952;2023-02-24T06:51:51;199.55;;;69.40;;
34317;SDS011;20582;52.196;20.952;2023-02-24T06:54:18;179.50;;;65.22;;
34317;SDS011;20582;52.196;20.952;2023-02-24T06:56:46;190.00;;;67.50;;
34317;SDS011;20582;52.196;20.952;2023-02-24T06:59:12;179.52;;;65.32;;
34317;SDS011;20582;52.196;20.952;2023-02-24T07:01:45;187.98;;;64.85;;
34317;SDS011;20582;52.196;20.952;2023-02-24T07:04:11;173.40;;;58.17;;
34317;SDS011;20582;52.196;20.952;2023-02-24T07:06:38;158.63;;;57.00;;
34317;SDS011;20582;52.196;20.952;2023-02-24T07:09:12;164.73;;;61.33;;
34317;SDS011;20582;52.196;20.952;2023-02-24T07:11:39;188.20;;;67.07;;
34317;SDS011;20582;52.196;20.952;2023-02-24T07:14:06;171.40;;;58.53;;
34317;SDS011;20582;52.196;20.952;2023-02-24T07:16:32;189.00;;;59.72;;
34317;SDS011;20582;52.196;20.952;2023-02-24T07:19:05;168.77;;;60.38;;
34317;SDS011;20582;52.196;20.952;2023-02-24T07:21:35;170.77;;;61.22;;
34317;SDS011;20582;52.196;20.952;2023-02-24T07:24:04;162.02;;;56.47;;
34317;SDS011;20582;52.196;20.952;2023-02-24T07:26:30;158.68;;;56.80;;
34317;SDS011;20582;52.196;20.952;2023-02-24T07:28:56;150.65;;;57.00;;
34317;SDS011;20582;52.196;20.952;2023-02-24T07:31:22;163.50;;;60.03;;
34317;SDS011;20582;52.196;20.952;2023-02-24T07:33:52;153.43;;;55.40;;
34317;SDS011;20582;52.196;20.952;2023-02-24T07:36:20;162.57;;;57.15;;
34317;SDS011;20582;52.196;20.952;2023-02-24T07:38:54;159.23;;;57.00;;
34317;SDS011;20582;52.196;20.952;2023-02-24T07:41:20;163.02;;;58.80;;
34317;SDS011;20582;52.196;20.952;2023-02-24T07:43:47;152.20;;;56.65;;
34317;SDS011;20582;52.196;20.952;2023-02-24T07:46:15;153.43;;;57.92;;
34317;SDS011;20582;52.196;20.952;2023-02-24T07:48:43;156.20;;;55.92;;
34317;SDS011;20582;52.196;20.952;2023-02-24T07:51:11;156.70;;;56.45;;
34317;SDS011;20582;52.196;20.952;2023-02-24T07:53:39;148.55;;;53.72;;
34317;SDS011;20582;52.196;20.952;2023-02-24T07:56:08;155.18;;;55.20;;
34317;SDS011;20582;52.196;20.952;2023-02-24T07:58:39;153.70;;;53.88;;
34317;SDS011;20582;52.196;20.952;2023-02-24T08:01:06;152.45;;;54.67;;
34317;SDS011;20582;52.196;20.952;2023-02-24T08:03:33;131.45;;;50.40;;
34317;SDS011;20582;52.196;20.952;2023-02-24T08:06:01;140.50;;;51.75;;
34317;SDS011;20582;52.196;20.952;2023-02-24T08:08:43;137.50;;;53.33;;
34317;SDS011;20582;52.196;20.952;2023-02-24T08:11:40;147.07;;;53.45;;
34317;SDS011;20582;52.196;20.952;2023-02-24T08:14:09;155.05;;;53.95;;
34317;SDS011;20582;52.196;20.952;2023-02-24T08:16:48;134.63;;;50.72;;
34317;SDS011;20582;52.196;20.952;2023-02-24T08:19:15;143.05;;;52.55;;
34317;SDS011;20582;52.196;20.952;2023-02-24T08:21:45;132.75;;;51.28;;
34317;SDS011;20582;52.196;20.952;2023-02-24T08:24:21;122.85;;;47.80;;
34317;SDS011;20582;52.196;20.952;2023-02-24T08:26:54;125.40;;;45.70;;
34317;SDS011;20582;52.196;20.952;2023-02-24T08:29:33;136.57;;;49.10;;
34317;SDS011;20582;52.196;20.952;2023-02-24T08:32:07;119.82;;;46.42;;
34317;SDS011;20582;52.196;20.952;2023-02-24T08:34:34;128.02;;;48.08;;
34317;SDS011;20582;52.196;20.952;2023-02-24T08:37:00;121.00;;;48.13;;
34317;SDS011;20582;52.196;20.952;2023-02-24T08:39:26;117.05;;;45.95;;
34317;SDS011;20582;52.196;20.952;2023-02-24T08:42:00;121.20;;;47.38;;
34317;SDS011;20582;52.196;20.952;2023-02-24T08:44:26;107.05;;;43.97;;
34317;SDS011;20582;52.196;20.952;2023-02-24T08:46:53;112.43;;;44.88;;
34317;SDS011;20582;52.196;20.952;2023-02-24T08:49:20;114.65;;;47.28;;
34317;SDS011;20582;52.196;20.952;2023-02-24T08:51:49;117.53;;;50.22;;
34317;SDS011;20582;52.196;20.952;2023-02-24T08:54:17;97.72;;;42.13;;
34317;SDS011;20582;52.196;20.952;2023-02-24T08:56:51;98.63;;;42.70;;
34317;SDS011;20582;52.196;20.952;2023-02-24T08:59:20;94.53;;;43.13;;
34317;SDS011;20582;52.196;20.952;2023-02-24T09:02:15;91.72;;;38.92;;
34317;SDS011;20582;52.196;20.952;2023-02-24T09:04:58;96.43;;;40.70;;
34317;SDS011;20582;52.196;20.952;2023-02-24T09:07:31;94.00;;;40.95;;
34317;SDS011;20582;52.196;20.952;2023-02-24T09:09:59;100.63;;;43.13;;
34317;SDS011;20582;52.196;20.952;2023-02-24T09:12:26;91.43;;;40.53;;
34317;SDS011;20582;52.196;20.952;2023-02-24T09:14:57;93.75;;;41.97;;
34317;SDS011;20582;52.196;20.952;2023-02-24T09:17:26;96.63;;;41.20;;
34317;SDS011;20582;52.196;20.952;2023-02-24T09:20:25;98.80;;;40.35;;
34317;SDS011;20582;52.196;20.952;2023-02-24T09:22:51;92.03;;;40.17;;
34317;SDS011;20582;52.196;20.952;2023-02-24T09:25:32;93.05;;;40.47;;
34317;SDS011;20582;52.196;20.952;2023-02-24T09:28:20;89.60;;;40.20;;
34317;SDS011;20582;52.196;20.952;2023-02-24T09:33:22;96.13;;;41.40;;
34317;SDS011;20582;52.196;20.952;2023-02-24T09:38:18;87.45;;;38.15;;
34317;SDS011;20582;52.196;20.952;2023-02-24T09:40:45;91.60;;;39.92;;
34317;SDS011;20582;52.196;20.952;2023-02-24T09:43:15;102.57;;;42.03;;
34317;SDS011;20582;52.196;20.952;2023-02-24T09:45:45;85.65;;;38.83;;
34317;SDS011;20582;52.196;20.952;2023-02-24T09:48:18;87.68;;;38.85;;
34317;SDS011;20582;52.196;20.952;2023-02-24T09:50:47;90.65;;;40.15;;
34317;SDS011;20582;52.196;20.952;2023-02-24T09:53:27;76.38;;;35.78;;
34317;SDS011;20582;52.196;20.952;2023-02-24T09:58:34;85.13;;;37.88;;
34317;SDS011;20582;52.196;20.952;2023-02-24T10:01:11;79.70;;;37.83;;
34317;SDS011;20582;52.196;20.952;2023-02-24T10:03:45;85.80;;;37.35;;
34317;SDS011;20582;52.196;20.952;2023-02-24T10:06:25;87.30;;;36.42;;
34317;SDS011;20582;52.196;20.952;2023-02-24T10:09:05;76.63;;;36.40;;
34317;SDS011;20582;52.196;20.952;2023-02-24T10:11:39;90.15;;;38.83;;
34317;SDS011;20582;52.196;20.952;2023-02-24T10:14:17;96.07;;;39.42;;
34317;SDS011;20582;52.196;20.952;2023-02-24T10:16:44;74.93;;;33.20;;
34317;SDS011;20582;52.196;20.952;2023-02-24T10:19:23;78.13;;;30.80;;
34317;SDS011;20582;52.196;20.952;2023-02-24T10:21:59;76.70;;;32.03;;
34317;SDS011;20582;52.196;20.952;2023-02-24T10:27:05;77.80;;;33.33;;
34317;SDS011;20582;52.196;20.952;2023-02-24T10:29:47;67.38;;;28.10;;
34317;SDS011;20582;52.196;20.952;2023-02-24T10:32:20;65.90;;;27.42;;
34317;SDS011;20582;52.196;20.952;2023-02-24T10:34:50;54.83;;;23.98;;
34317;SDS011;20582;52.196;20.952;2023-02-24T10:37:20;55.70;;;24.15;;
34317;SDS011;20582;52.196;20.952;2023-02-24T10:39:47;52.83;;;23.13;;
34317;SDS011;20582;52.196;20.952;2023-02-24T10:42:24;52.85;;;22.98;;
34317;SDS011;20582;52.196;20.952;2023-02-24T10:44:51;51.42;;;20.70;;
34317;SDS011;20582;52.196;20.952;2023-02-24T10:47:18;47.08;;;19.35;;
34317;SDS011;20582;52.196;20.952;2023-02-24T10:49:46;44.40;;;17.65;;
34317;SDS011;20582;52.196;20.952;2023-02-24T10:52:22;38.00;;;17.40;;
34317;SDS011;20582;52.196;20.952;2023-02-24T10:55:02;40.25;;;17.73;;
34317;SDS011;20582;52.196;20.952;2023-02-24T10:57:51;39.45;;;16.40;;
34317;SDS011;20582;52.196;20.952;2023-02-24T11:00:35;37.65;;;17.10;;
34317;SDS011;20582;52.196;20.952;2023-02-24T11:03:20;45.63;;;17.50;;
34317;SDS011;20582;52.196;20.952;2023-02-24T11:06:00;44.75;;;16.88;;
34317;SDS011;20582;52.196;20.952;2023-02-24T11:08:32;42.85;;;18.10;;
34317;SDS011;20582;52.196;20.952;2023-02-24T11:11:19;43.58;;;17.92;;
34317;SDS011;20582;52.196;20.952;2023-02-24T11:13:53;47.10;;;19.50;;
34317;SDS011;20582;52.196;20.952;2023-02-24T11:16:50;49.33;;;18.35;;
34317;SDS011;20582;52.196;20.952;2023-02-24T11:19:40;40.50;;;17.48;;
34317;SDS011;20582;52.196;20.952;2023-02-24T11:22:10;43.85;;;17.75;;
34317;SDS011;20582;52.196;20.952;2023-02-24T11:24:37;41.20;;;16.50;;
34317;SDS011;20582;52.196;20.952;2023-02-24T11:27:04;39.58;;;17.02;;
34317;SDS011;20582;52.196;20.952;2023-02-24T11:32:24;44.15;;;17.30;;
34317;SDS011;20582;52.196;20.952;2023-02-24T11:34:55;43.85;;;16.13;;
34317;SDS011;20582;52.196;20.952;2023-02-24T11:37:37;37.20;;;17.42;;
34317;SDS011;20582;52.196;20.952;2023-02-24T11:40:10;41.03;;;17.98;;
34317;SDS011;20582;52.196;20.952;2023-02-24T11:42:43;38.70;;;18.25;;
34317;SDS011;20582;52.196;20.952;2023-02-24T11:45:14;36.65;;;17.48;;
34317;SDS011;20582;52.196;20.952;2023-02-24T11:47:47;48.15;;;20.05;;
34317;SDS011;20582;52.196;20.952;2023-02-24T11:50:25;40.78;;;19.35;;
34317;SDS011;20582;52.196;20.952;2023-02-24T11:52:54;40.78;;;18.65;;
34317;SDS011;20582;52.196;20.952;2023-02-24T11:55:33;43.55;;;19.58;;
34317;SDS011;20582;52.196;20.952;2023-02-24T12:00:30;43.15;;;19.75;;
34317;SDS011;20582;52.196;20.952;2023-02-24T12:05:24;42.60;;;20.70;;
34317;SDS011;20582;52.196;20.952;2023-02-24T12:07:58;41.03;;;20.80;;
34317;SDS011;20582;52.196;20.952;2023-02-24T12:10:31;34.10;;;17.08;;
34317;SDS011;20582;52.196;20.952;2023-02-24T12:13:05;31.17;;;16.42;;
34317;SDS011;20582;52.196;20.952;2023-02-24T12:20:33;30.30;;;15.50;;
34317;SDS011;20582;52.196;20.952;2023-02-24T12:25:31;26.20;;;12.80;;
34317;SDS011;20582;52.196;20.952;2023-02-24T12:28:11;24.67;;;12.13;;
34317;SDS011;20582;52.196;20.952;2023-02-24T12:35:59;26.23;;;12.07;;
34317;SDS011;20582;52.196;20.952;2023-02-24T12:38:46;21.67;;;12.10;;
34317;SDS011;20582;52.196;20.952;2023-02-24T12:44:06;24.75;;;11.75;;
34317;SDS011;20582;52.196;20.952;2023-02-24T12:46:36;21.55;;;10.35;;
34317;SDS011;20582;52.196;20.952;2023-02-24T12:54:05;21.00;;;10.80;;
34317;SDS011;20582;52.196;20.952;2023-02-24T12:59:18;23.40;;;11.80;;
34317;SDS011;20582;52.196;20.952;2023-02-24T13:12:37;20.10;;;10.75;;
34317;SDS011;20582;52.196;20.952;2023-02-24T13:15:06;22.48;;;10.65;;
34317;SDS011;20582;52.196;20.952;2023-02-24T13:17:47;23.60;;;11.45;;
34317;SDS011;20582;52.196;20.952;2023-02-24T13:20:29;18.38;;;9.48;;
34317;SDS011;20582;52.196;20.952;2023-02-24T13:22:55;18.55;;;9.90;;
34317;SDS011;20582;52.196;20.952;2023-02-24T13:25:28;20.48;;;10.20;;
34317;SDS011;20582;52.196;20.952;2023-02-24T13:27:56;20.15;;;10.10;;
34317;SDS011;20582;52.196;20.952;2023-02-24T13:33:00;21.70;;;11.18;;
34317;SDS011;20582;52.196;20.952;2023-02-24T13:35:29;22.20;;;10.50;;
34317;SDS011;20582;52.196;20.952;2023-02-24T13:38:05;23.88;;;12.32;;
34317;SDS011;20582;52.196;20.952;2023-02-24T13:40:31;23.17;;;11.93;;
34317;SDS011;20582;52.196;20.952;2023-02-24T14:00:50;24.70;;;13.00;;
34317;SDS011;20582;52.196;20.952;2023-02-24T14:03:18;29.38;;;13.60;;
34317;SDS011;20582;52.196;20.952;2023-02-24T14:05:45;26.52;;;13.27;;
34317;SDS011;20582;52.196;20.952;2023-02-24T14:08:16;26.10;;;13.20;;
34317;SDS011;20582;52.196;20.952;2023-02-24T14:10:43;25.33;;;14.43;;
34317;SDS011;20582;52.196;20.952;2023-02-24T14:13:14;25.05;;;13.40;;
34317;SDS011;20582;52.196;20.952;2023-02-24T14:15:42;25.10;;;13.65;;
34317;SDS011;20582;52.196;20.952;2023-02-24T14:21:03;25.42;;;14.05;;
34317;SDS011;20582;52.196;20.952;2023-02-24T14:23:30;24.85;;;13.13;;
34317;SDS011;20582;52.196;20.952;2023-02-24T14:25:57;25.30;;;14.18;;
34317;SDS011;20582;52.196;20.952;2023-02-24T14:28:26;26.02;;;14.38;;
34317;SDS011;20582;52.196;20.952;2023-02-24T14:30:54;26.95;;;14.95;;
34317;SDS011;20582;52.196;20.952;2023-02-24T14:33:32;24.38;;;13.88;;
34317;SDS011;20582;52.196;20.952;2023-02-24T14:35:59;24.73;;;13.45;;
34317;SDS011;20582;52.196;20.952;2023-02-24T14:38:27;27.65;;;13.90;;
34317;SDS011;20582;52.196;20.952;2023-02-24T14:40:53;30.50;;;15.75;;
34317;SDS011;20582;52.196;20.952;2023-02-24T14:43:19;25.60;;;14.93;;
34317;SDS011;20582;52.196;20.952;2023-02-24T14:45:49;24.80;;;14.43;;
34317;SDS011;20582;52.196;20.952;2023-02-24T14:48:20;26.38;;;15.15;;
34317;SDS011;20582;52.196;20.952;2023-02-24T14:50:47;29.75;;;16.17;;
34317;SDS011;20582;52.196;20.952;2023-02-24T14:53:14;30.70;;;15.63;;
34317;SDS011;20582;52.196;20.952;2023-02-24T14:55:41;27.65;;;14.85;;
34317;SDS011;20582;52.196;20.952;2023-02-24T15:00:39;26.55;;;15.07;;
34317;SDS011;20582;52.196;20.952;2023-02-24T15:05:39;29.10;;;15.23;;
34317;SDS011;20582;52.196;20.952;2023-02-24T15:08:05;25.42;;;15.25;;
34317;SDS011;20582;52.196;20.952;2023-02-24T15:10:40;32.70;;;17.95;;
34317;SDS011;20582;52.196;20.952;2023-02-24T15:13:13;31.38;;;17.48;;
34317;SDS011;20582;52.196;20.952;2023-02-24T15:18:23;28.50;;;15.70;;
34317;SDS011;20582;52.196;20.952;2023-02-24T15:20:57;31.15;;;17.23;;
34317;SDS011;20582;52.196;20.952;2023-02-24T15:23:25;31.23;;;17.38;;
34317;SDS011;20582;52.196;20.952;2023-02-24T15:25:51;30.15;;;15.98;;
34317;SDS011;20582;52.196;20.952;2023-02-24T15:28:25;31.38;;;17.20;;
34317;SDS011;20582;52.196;20.952;2023-02-24T15:31:08;27.25;;;15.27;;
34317;SDS011;20582;52.196;20.952;2023-02-24T15:33:41;32.33;;;17.90;;
34317;SDS011;20582;52.196;20.952;2023-02-24T15:36:11;32.13;;;17.02;;
34317;SDS011;20582;52.196;20.952;2023-02-24T15:38:41;30.10;;;16.17;;
34317;SDS011;20582;52.196;20.952;2023-02-24T15:41:08;30.42;;;15.80;;
34317;SDS011;20582;52.196;20.952;2023-02-24T15:43:51;28.17;;;15.85;;
34317;SDS011;20582;52.196;20.952;2023-02-24T15:48:55;29.15;;;15.70;;
34317;SDS011;20582;52.196;20.952;2023-02-24T15:53:51;26.83;;;16.13;;
34317;SDS011;20582;52.196;20.952;2023-02-24T15:56:17;25.45;;;16.17;;
34317;SDS011;20582;52.196;20.952;2023-02-24T15:58:43;28.77;;;16.58;;
34317;SDS011;20582;52.196;20.952;2023-02-24T16:01:10;29.33;;;17.08;;
34317;SDS011;20582;52.196;20.952;2023-02-24T16:03:36;32.20;;;18.25;;
34317;SDS011;20582;52.196;20.952;2023-02-24T16:06:02;35.40;;;19.10;;
34317;SDS011;20582;52.196;20.952;2023-02-24T16:08:28;34.67;;;20.02;;
34317;SDS011;20582;52.196;20.952;2023-02-24T16:10:54;33.78;;;20.52;;
34317;SDS011;20582;52.196;20.952;2023-02-24T16:13:21;33.42;;;18.33;;
34317;SDS011;20582;52.196;20.952;2023-02-24T16:15:48;29.75;;;17.55;;
34317;SDS011;20582;52.196;20.952;2023-02-24T16:18:17;32.53;;;17.35;;
34317;SDS011;20582;52.196;20.952;2023-02-24T16:20:44;26.55;;;14.30;;
34317;SDS011;20582;52.196;20.952;2023-02-24T16:23:21;27.70;;;14.73;;